Time;durP1;ratioP1;P1;durP2;ratioP2;P2;SDS_P1;SDS_P2;PMS_P1;PMS_P2;Temp;Humidity;BMP_temperature;BMP_pressure;BME280_temperature;BME280_humidity;BME280_pressure;Samples;Min_cycle;Max_cycle;Signal;HPM_P1;HPM_P2
2020/12/03 00:02:05;;;;;;;28.15;14.52;;;4.40;99.90;;;;;;5030577;28;20191;-67
2020/12/03 00:04:31;;;;;;;30.80;14.55;;;4.30;99.90;;;;;;5028231;28;20033;-65
2020/12/03 00:07:00;;;;;;;27.35;13.93;;;4.30;99.90;;;;;;5028979;28;20029;-68
2020/12/03 00:09:27;;;;;;;28.83;13.75;;;4.30;99.90;;;;;;5029636;28;20067;-67
2020/12/03 00:12:01;;;;;;;27.17;13.90;;;4.30;99.90;;;;;;5017807;28;20148;-66
2020/12/03 00:14:27;;;;;;;28.15;13.98;;;4.30;99.90;;;;;;5029694;28;20033;-66
2020/12/03 00:16:56;;;;;;;27.00;13.55;;;4.30;99.90;;;;;;5030197;28;20029;-67
2020/12/03 00:19:25;;;;;;;27.45;13.77;;;4.40;99.90;;;;;;5011398;28;20455;-65
2020/12/03 00:22:00;;;;;;;27.63;13.43;;;4.30;99.90;;;;;;5029918;28;20034;-67
2020/12/03 00:24:31;;;;;;;27.65;14.40;;;4.30;99.90;;;;;;5011769;28;20072;-64
2020/12/03 00:27:09;;;;;;;27.17;13.40;;;4.30;99.90;;;;;;5000725;28;20099;-66
2020/12/03 00:29:35;;;;;;;29.38;14.70;;;4.30;99.90;;;;;;5010765;28;20075;-65
2020/12/03 00:32:01;;;;;;;30.17;15.20;;;4.30;99.90;;;;;;5006561;28;20028;-67
2020/12/03 00:34:27;;;;;;;25.73;13.55;;;4.30;99.90;;;;;;5011271;28;20068;-66
2020/12/03 00:36:53;;;;;;;28.05;14.25;;;4.30;99.90;;;;;;5002708;28;20025;-65
2020/12/03 00:39:20;;;;;;;25.65;13.05;;;4.30;99.90;;;;;;4994953;28;20033;-64
2020/12/03 00:41:51;;;;;;;29.65;16.63;;;4.30;99.90;;;;;;5013482;28;20072;-67
2020/12/03 00:44:18;;;;;;;27.08;14.25;;;4.30;99.90;;;;;;5011608;28;20078;-67
2020/12/03 00:46:44;;;;;;;27.20;13.52;;;4.30;99.90;;;;;;5012042;28;20030;-66
2020/12/03 00:49:10;;;;;;;27.67;13.93;;;4.30;99.90;;;;;;5012636;28;20291;-66
2020/12/03 00:51:37;;;;;;;27.27;13.85;;;4.20;99.90;;;;;;5011932;28;20491;-66
2020/12/03 00:54:02;;;;;;;29.23;13.63;;;4.30;99.90;;;;;;5027227;28;20029;-68
2020/12/03 00:56:28;;;;;;;27.70;13.35;;;4.30;99.90;;;;;;5030791;28;20036;-66
2020/12/03 00:58:54;;;;;;;26.75;15.13;;;4.30;99.90;;;;;;5017051;28;20084;-67
2020/12/03 01:01:20;;;;;;;29.85;14.23;;;4.30;99.90;;;;;;5031149;28;20074;-67
2020/12/03 01:03:48;;;;;;;26.98;13.57;;;4.30;99.90;;;;;;5029282;28;20528;-65
2020/12/03 01:06:14;;;;;;;30.00;14.27;;;4.30;99.90;;;;;;5004923;28;20168;-66
2020/12/03 01:08:39;;;;;;;25.55;13.05;;;4.30;99.90;;;;;;5030580;28;20363;-67
2020/12/03 01:11:05;;;;;;;26.23;13.55;;;4.30;99.90;;;;;;5032545;28;20040;-67
2020/12/03 01:13:31;;;;;;;27.40;12.93;;;4.30;99.90;;;;;;5023066;28;20022;-67
2020/12/03 01:15:57;;;;;;;27.77;14.45;;;4.20;99.90;;;;;;5041015;22;20049;-54
2020/12/03 01:18:23;;;;;;;28.17;13.90;;;4.30;99.90;;;;;;5015004;28;20496;-58
2020/12/03 01:20:49;;;;;;;27.90;12.95;;;4.20;99.90;;;;;;5033544;28;20045;-57
2020/12/03 01:23:15;;;;;;;27.15;13.93;;;4.20;99.90;;;;;;5032554;28;20060;-58
2020/12/03 01:25:40;;;;;;;28.92;14.45;;;4.20;99.90;;;;;;5013969;28;20028;-55
2020/12/03 01:28:06;;;;;;;30.20;14.40;;;4.20;99.90;;;;;;5018840;28;20211;-56
2020/12/03 01:30:31;;;;;;;30.42;14.52;;;4.20;99.90;;;;;;5031062;28;20036;-57
2020/12/03 01:32:58;;;;;;;28.38;14.43;;;4.10;99.90;;;;;;5015749;28;20030;-56
2020/12/03 01:35:24;;;;;;;28.50;14.07;;;4.10;99.90;;;;;;5015423;28;20024;-55
2020/12/03 01:37:50;;;;;;;32.75;16.75;;;4.10;99.90;;;;;;5016127;28;20100;-59
2020/12/03 01:40:25;;;;;;;29.25;15.02;;;4.10;99.90;;;;;;5018427;28;20057;-54
2020/12/03 01:42:51;;;;;;;30.42;15.68;;;4.10;99.90;;;;;;5015497;28;20088;-58
2020/12/03 01:45:54;;;;;;;30.83;15.18;;;4.10;99.90;;;;;;4999492;28;20548;-53
2020/12/03 01:48:27;;;;;;;31.35;15.32;;;4.10;99.90;;;;;;4994762;28;20025;-58
2020/12/03 01:50:54;;;;;;;34.55;17.52;;;4.10;99.90;;;;;;4995694;28;20053;-58
2020/12/03 01:53:21;;;;;;;30.92;15.32;;;4.00;99.90;;;;;;5013160;28;20022;-57
2020/12/03 01:55:48;;;;;;;33.00;18.40;;;4.00;99.90;;;;;;4995609;28;20033;-53
2020/12/03 01:58:41;;;;;;;31.38;16.58;;;4.00;99.90;;;;;;4994699;28;20084;-53
2020/12/03 02:01:08;;;;;;;33.58;18.15;;;4.00;99.90;;;;;;5002728;28;20022;-59
2020/12/03 02:03:34;;;;;;;30.42;16.42;;;4.00;99.90;;;;;;5013038;28;20018;-55
2020/12/03 02:06:00;;;;;;;34.53;17.95;;;4.00;99.90;;;;;;4995348;28;20029;-56
2020/12/03 02:08:26;;;;;;;34.70;19.35;;;4.00;99.90;;;;;;4996653;28;20030;-57
2020/12/03 02:10:52;;;;;;;33.72;17.30;;;3.90;99.90;;;;;;5032243;28;20029;-56
2020/12/03 02:13:19;;;;;;;35.53;17.13;;;3.90;99.90;;;;;;5014799;28;20072;-59
2020/12/03 02:15:44;;;;;;;36.55;18.90;;;3.90;99.90;;;;;;5032614;28;20052;-56
2020/12/03 02:18:10;;;;;;;39.22;21.65;;;3.90;99.90;;;;;;5014513;28;20511;-57
2020/12/03 02:20:36;;;;;;;38.70;20.42;;;3.90;99.90;;;;;;5031916;28;20048;-57
2020/12/03 02:23:10;;;;;;;37.88;19.15;;;3.90;99.90;;;;;;5032479;28;20477;-54
2020/12/03 02:25:37;;;;;;;37.35;18.88;;;3.90;99.90;;;;;;5014892;28;20030;-57
2020/12/03 02:28:03;;;;;;;36.22;19.50;;;3.90;99.90;;;;;;4994339;28;20037;-58
2020/12/03 02:30:29;;;;;;;40.08;21.73;;;3.90;99.90;;;;;;4994661;28;20030;-55
2020/12/03 02:32:55;;;;;;;37.67;20.33;;;3.90;99.90;;;;;;5001306;28;20025;-55
2020/12/03 02:35:21;;;;;;;36.30;20.60;;;3.80;99.90;;;;;;5017787;28;20029;-58
2020/12/03 02:37:47;;;;;;;38.00;18.23;;;3.90;99.90;;;;;;5005558;28;20025;-53
2020/12/03 02:40:13;;;;;;;36.75;17.88;;;3.90;99.90;;;;;;5024730;28;20079;-57
2020/12/03 02:42:39;;;;;;;37.55;19.08;;;3.90;99.90;;;;;;5031854;28;20034;-58
2020/12/03 02:45:06;;;;;;;34.72;17.65;;;3.90;99.90;;;;;;5032141;28;20036;-59
2020/12/03 02:47:32;;;;;;;35.08;18.50;;;3.90;99.90;;;;;;5032605;28;20369;-59
2020/12/03 02:49:58;;;;;;;36.72;19.20;;;3.80;99.90;;;;;;5034342;28;20040;-56
2020/12/03 02:52:24;;;;;;;35.38;18.65;;;3.90;99.90;;;;;;5019358;28;20042;-53
2020/12/03 02:54:51;;;;;;;36.20;18.38;;;3.90;99.90;;;;;;5012463;28;20088;-56
2020/12/03 02:57:22;;;;;;;36.45;19.48;;;3.80;99.90;;;;;;5012923;28;20030;-61
2020/12/03 02:59:47;;;;;;;37.35;18.77;;;3.80;99.90;;;;;;5011612;28;20032;-54
2020/12/03 03:02:14;;;;;;;37.67;20.30;;;3.80;99.90;;;;;;5029639;28;20029;-59
2020/12/03 03:04:41;;;;;;;37.63;19.25;;;3.80;99.90;;;;;;5028738;28;20552;-54
2020/12/03 03:07:06;;;;;;;41.63;21.85;;;3.80;99.90;;;;;;5013027;28;20029;-53
2020/12/03 03:09:33;;;;;;;35.60;19.08;;;3.80;99.90;;;;;;5010931;28;20040;-57
2020/12/03 03:11:58;;;;;;;34.58;18.90;;;3.90;99.90;;;;;;5027577;28;20071;-58
2020/12/03 03:14:24;;;;;;;39.97;20.40;;;3.90;99.90;;;;;;5013450;28;20021;-58
2020/12/03 03:16:50;;;;;;;37.38;20.48;;;3.90;99.90;;;;;;5013743;28;20069;-58
2020/12/03 03:19:18;;;;;;;38.22;18.70;;;3.90;99.90;;;;;;5028102;28;20025;-55
2020/12/03 03:21:44;;;;;;;35.65;17.75;;;3.90;99.90;;;;;;4994258;28;20033;-57
2020/12/03 03:24:10;;;;;;;35.67;17.77;;;3.90;99.90;;;;;;4994226;28;20030;-55
2020/12/03 03:26:36;;;;;;;35.70;19.05;;;4.00;99.90;;;;;;5011728;28;20084;-55
2020/12/03 03:29:04;;;;;;;38.28;19.40;;;3.90;99.90;;;;;;4993398;28;20432;-57
2020/12/03 03:31:30;;;;;;;32.78;17.83;;;4.00;99.90;;;;;;4993775;28;20037;-56
2020/12/03 03:33:56;;;;;;;35.30;19.20;;;4.00;99.90;;;;;;5000750;28;20030;-58
2020/12/03 03:36:22;;;;;;;33.65;18.35;;;4.00;99.90;;;;;;4993817;28;20143;-57
2020/12/03 03:38:49;;;;;;;34.17;17.45;;;4.00;99.90;;;;;;5025358;28;20026;-55
2020/12/03 03:41:15;;;;;;;35.63;18.65;;;4.00;99.90;;;;;;5031401;28;20029;-54
2020/12/03 03:43:41;;;;;;;34.83;17.50;;;4.00;99.90;;;;;;5013609;28;20033;-56
2020/12/03 03:46:07;;;;;;;33.83;17.70;;;3.90;99.90;;;;;;4998492;28;20026;-61
2020/12/03 03:48:32;;;;;;;36.65;19.00;;;3.90;99.90;;;;;;4993401;28;20045;-59
2020/12/03 03:50:58;;;;;;;36.50;18.00;;;4.00;99.90;;;;;;4994024;28;20022;-57
2020/12/03 03:53:24;;;;;;;33.70;18.38;;;4.00;99.90;;;;;;5011605;28;20050;-55
2020/12/03 03:55:50;;;;;;;35.22;17.20;;;4.00;99.90;;;;;;5021952;28;20078;-56
2020/12/03 03:58:15;;;;;;;33.55;17.95;;;4.00;99.90;;;;;;5034138;28;20112;-57
2020/12/03 04:00:46;;;;;;;33.90;17.33;;;4.00;99.90;;;;;;5032289;28;20025;-54
2020/12/03 04:03:15;;;;;;;34.33;18.92;;;4.00;99.90;;;;;;5012975;28;20222;-58
2020/12/03 04:05:42;;;;;;;33.08;18.02;;;4.00;99.90;;;;;;4999824;28;20637;-55
2020/12/03 04:08:09;;;;;;;32.35;16.30;;;4.00;99.90;;;;;;5014781;28;20049;-57
2020/12/03 04:10:35;;;;;;;32.35;15.77;;;4.00;99.90;;;;;;5013291;28;20135;-56
2020/12/03 04:13:01;;;;;;;36.53;18.77;;;4.10;99.90;;;;;;5031515;28;20540;-56
2020/12/03 04:15:27;;;;;;;35.58;18.45;;;4.10;99.90;;;;;;5021192;28;20038;-56
2020/12/03 04:17:53;;;;;;;35.78;17.65;;;4.10;99.90;;;;;;5010921;28;20499;-58
2020/12/03 04:20:19;;;;;;;32.13;17.75;;;4.10;99.90;;;;;;4993015;28;20113;-59
2020/12/03 04:22:45;;;;;;;35.33;20.25;;;4.10;99.90;;;;;;4993615;28;20034;-56
2020/12/03 04:25:12;;;;;;;33.95;16.65;;;4.10;99.90;;;;;;5000720;28;20030;-54
2020/12/03 04:27:38;;;;;;;34.70;17.20;;;4.10;99.90;;;;;;5030705;28;20496;-52
2020/12/03 04:30:06;;;;;;;34.13;18.23;;;4.10;99.90;;;;;;5030213;28;20037;-56
2020/12/03 04:32:33;;;;;;;34.10;18.17;;;4.10;99.90;;;;;;5030780;28;20100;-53
2020/12/03 04:34:59;;;;;;;36.30;19.50;;;4.00;99.90;;;;;;5024994;28;20416;-52
2020/12/03 04:37:25;;;;;;;33.28;17.10;;;4.00;99.90;;;;;;5023546;28;20025;-55
2020/12/03 04:39:51;;;;;;;36.78;19.65;;;4.00;99.90;;;;;;5030159;28;20105;-59
2020/12/03 04:42:27;;;;;;;32.58;16.95;;;4.00;99.90;;;;;;4994531;28;20022;-55
2020/12/03 04:44:59;;;;;;;33.25;18.35;;;4.00;99.90;;;;;;4996625;28;20099;-56
2020/12/03 04:47:44;;;;;;;35.22;17.20;;;4.00;99.90;;;;;;5031619;28;20079;-53
2020/12/03 04:50:39;;;;;;;32.88;16.70;;;4.00;99.90;;;;;;5017052;28;20052;-56
2020/12/03 04:53:32;;;;;;;33.38;17.33;;;4.00;99.90;;;;;;5016498;28;20032;-53
2020/12/03 04:56:04;;;;;;;31.73;18.17;;;4.00;99.90;;;;;;5018501;28;20168;-59
2020/12/03 04:59:24;;;;;;;38.28;17.90;;;3.90;99.90;;;;;;4996214;28;20038;-56
2020/12/03 05:02:06;;;;;;;37.50;17.05;;;4.00;99.90;;;;;;4934446;29;20472;-56
2020/12/03 05:04:52;;;;;;;34.88;17.80;;;4.00;99.90;;;;;;4998456;28;20032;-57
2020/12/03 05:07:22;;;;;;;34.35;17.45;;;4.10;99.90;;;;;;4999290;28;20022;-56
2020/12/03 05:10:21;;;;;;;37.83;18.80;;;4.00;99.90;;;;;;5013460;28;20026;-56
2020/12/03 05:12:48;;;;;;;36.28;18.50;;;4.00;99.90;;;;;;4996497;28;20017;-57
2020/12/03 05:15:33;;;;;;;38.35;19.33;;;4.00;99.90;;;;;;5023642;28;20057;-57
2020/12/03 05:18:30;;;;;;;34.15;17.67;;;4.00;99.90;;;;;;5033628;28;20018;-57
2020/12/03 05:20:57;;;;;;;36.60;18.13;;;4.10;99.90;;;;;;4997064;28;20408;-58
2020/12/03 05:23:27;;;;;;;35.13;18.13;;;4.10;99.90;;;;;;4996181;28;20026;-57
2020/12/03 05:25:55;;;;;;;39.03;20.17;;;4.10;99.90;;;;;;4995787;28;20033;-54
2020/12/03 05:28:21;;;;;;;;;;;4.10;99.90;;;;;;4995844;28;20072;-57
2020/12/03 05:30:48;;;;;;;37.03;18.88;;;4.20;99.90;;;;;;4996123;28;20387;-55
2020/12/03 05:33:14;;;;;;;35.40;18.77;;;4.20;99.90;;;;;;5013915;28;20088;-57
2020/12/03 05:35:40;;;;;;;33.65;17.67;;;4.20;99.90;;;;;;5000001;28;20072;-59
2020/12/03 05:38:19;;;;;;;34.92;17.65;;;4.20;99.90;;;;;;4996661;28;20452;-53
2020/12/03 05:40:54;;;;;;;;;;;4.20;99.90;;;;;;5012057;28;20037;-53
2020/12/03 05:43:20;;;;;;;39.63;19.55;;;4.20;99.90;;;;;;5001270;28;19905;-58
2020/12/03 05:45:47;;;;;;;38.35;19.05;;;4.20;99.90;;;;;;5010843;28;20040;-54
2020/12/03 05:48:17;;;;;;;35.40;16.85;;;4.20;99.90;;;;;;5008333;28;20392;-53
2020/12/03 05:50:43;;;;;;;38.30;18.65;;;4.30;99.90;;;;;;4995759;28;20026;-57
2020/12/03 05:53:19;;;;;;;40.65;20.15;;;4.30;99.90;;;;;;5022451;28;20044;-59
2020/12/03 05:55:46;;;;;;;36.13;17.73;;;4.30;99.90;;;;;;5014360;28;20395;-59
2020/12/03 05:58:29;;;;;;;36.08;19.42;;;4.30;99.90;;;;;;5032290;28;20381;-58
2020/12/03 06:01:20;;;;;;;39.13;18.40;;;4.40;99.90;;;;;;5014938;28;20026;-57
2020/12/03 06:03:48;;;;;;;35.72;17.35;;;4.30;99.90;;;;;;4998322;28;20489;-57
2020/12/03 06:06:43;;;;;;;34.20;18.45;;;4.40;99.90;;;;;;4996194;28;20129;-55
2020/12/03 06:09:46;;;;;;;34.83;17.85;;;4.30;99.90;;;;;;5005287;28;20034;-56
2020/12/03 06:12:30;;;;;;;39.13;19.00;;;4.30;99.90;;;;;;4996791;28;20127;-56
2020/12/03 06:15:09;;;;;;;35.28;17.40;;;4.30;99.90;;;;;;5007975;28;20033;-58
2020/12/03 06:17:59;;;;;;;35.22;17.42;;;4.30;99.90;;;;;;5032546;28;20053;-57
2020/12/03 06:21:02;;;;;;;33.42;16.83;;;4.20;99.90;;;;;;5020565;28;20030;-56
2020/12/03 06:23:47;;;;;;;31.92;16.92;;;4.30;99.90;;;;;;4994875;28;20421;-59
2020/12/03 06:26:13;;;;;;;30.65;15.70;;;4.20;99.90;;;;;;4994869;28;20026;-57
2020/12/03 06:28:49;;;;;;;32.15;15.95;;;4.20;99.90;;;;;;4994468;28;20397;-59
2020/12/03 06:31:53;;;;;;;34.72;17.77;;;4.20;99.90;;;;;;4994838;28;20478;-56
2020/12/03 06:34:28;;;;;;;34.05;17.30;;;4.10;99.90;;;;;;4992254;28;20536;-52
2020/12/03 06:36:59;;;;;;;35.55;19.27;;;4.10;99.90;;;;;;5014242;28;20021;-59
2020/12/03 06:39:34;;;;;;;33.78;16.45;;;4.10;99.90;;;;;;5012788;28;20489;-59
2020/12/03 06:42:44;;;;;;;34.33;16.15;;;4.10;99.90;;;;;;4997470;28;20033;-58
2020/12/03 06:45:09;;;;;;;36.78;16.52;;;4.10;99.90;;;;;;4977033;28;20037;-56
2020/12/03 06:47:44;;;;;;;33.10;17.25;;;4.10;99.90;;;;;;5032106;28;20050;-64
2020/12/03 06:50:20;;;;;;;35.50;16.88;;;4.20;99.90;;;;;;5031058;28;20040;-56
2020/12/03 06:53:20;;;;;;;33.40;16.05;;;4.20;99.90;;;;;;4999631;28;20041;-56
2020/12/03 06:56:35;;;;;;;32.75;16.52;;;4.20;99.90;;;;;;5010876;28;20037;-59
2020/12/03 06:59:33;;;;;;;31.75;15.27;;;4.20;99.90;;;;;;4915090;29;20028;-56
2020/12/03 07:02:37;;;;;;;29.70;14.32;;;4.20;99.90;;;;;;4971605;28;20496;-56
2020/12/03 07:05:52;;;;;;;29.40;15.20;;;4.30;99.90;;;;;;5011303;28;20168;-55
2020/12/03 07:08:21;;;;;;;26.23;13.50;;;4.30;99.90;;;;;;5011842;28;20026;-54
2020/12/03 07:11:24;;;;;;;28.67;14.38;;;4.30;99.90;;;;;;5012204;28;20460;-57
2020/12/03 07:14:31;;;;;;;26.13;12.85;;;4.30;99.90;;;;;;5008542;28;20397;-57
2020/12/03 07:17:41;;;;;;;25.42;13.13;;;4.30;99.90;;;;;;5042851;23;20048;-66
2020/12/03 07:20:44;;;;;;;24.80;11.68;;;4.30;99.90;;;;;;5029339;28;20392;-67
2020/12/03 07:23:14;;;;;;;24.65;11.18;;;4.30;99.90;;;;;;5029971;28;20088;-68
2020/12/03 07:25:42;;;;;;;23.90;10.73;;;4.30;99.90;;;;;;5024181;28;20436;-66
2020/12/03 07:28:08;;;;;;;23.03;10.57;;;4.30;99.90;;;;;;5010724;28;20025;-66
2020/12/03 07:30:39;;;;;;;23.70;12.30;;;4.30;99.90;;;;;;5009385;28;20354;-66
2020/12/03 07:33:31;;;;;;;23.10;10.65;;;4.30;99.90;;;;;;5010093;28;20026;-66
2020/12/03 07:36:15;;;;;;;24.15;11.43;;;4.30;99.90;;;;;;5009866;28;20373;-66
2020/12/03 07:39:27;;;;;;;21.30;9.38;;;4.30;99.90;;;;;;5009045;28;20030;-67
2020/12/03 07:42:09;;;;;;;22.65;9.52;;;4.40;99.90;;;;;;5008535;28;20056;-66
2020/12/03 07:44:44;;;;;;;21.75;10.55;;;4.40;99.90;;;;;;5008900;28;20414;-67
2020/12/03 07:47:24;;;;;;;19.38;8.65;;;4.40;99.90;;;;;;5001887;28;20038;-64
2020/12/03 07:49:54;;;;;;;21.38;9.18;;;4.40;99.90;;;;;;5009704;28;20030;-68
2020/12/03 07:52:32;;;;;;;21.00;8.98;;;4.40;99.90;;;;;;5008367;28;20053;-67
2020/12/03 07:55:19;;;;;;;22.13;9.63;;;4.40;99.90;;;;;;5009047;28;20053;-66
2020/12/03 07:57:45;;;;;;;22.55;9.93;;;4.40;99.90;;;;;;5009010;28;20055;-65
2020/12/03 08:00:30;;;;;;;23.60;9.80;;;4.40;99.90;;;;;;5005824;28;20121;-67
2020/12/03 08:02:59;;;;;;;24.80;9.90;;;4.40;99.90;;;;;;5009830;28;20036;-67
2020/12/03 08:05:40;;;;;;;21.17;9.05;;;4.40;99.90;;;;;;5010410;28;20026;-66
2020/12/03 08:08:21;;;;;;;22.00;9.50;;;4.50;99.90;;;;;;5009851;28;20030;-66
2020/12/03 08:10:48;;;;;;;21.00;9.32;;;4.50;99.90;;;;;;5010268;28;20026;-66
2020/12/03 08:13:22;;;;;;;22.42;9.68;;;4.50;99.90;;;;;;5010179;28;20032;-67
2020/12/03 08:16:31;;;;;;;22.02;9.10;;;4.40;99.90;;;;;;5025069;28;20030;-65
2020/12/03 08:19:06;;;;;;;23.40;8.90;;;4.50;99.90;;;;;;5010286;28;20169;-66
2020/12/03 08:21:40;;;;;;;22.15;11.13;;;4.50;99.90;;;;;;5045480;28;20033;-67
2020/12/03 08:24:15;;;;;;;19.95;8.63;;;4.50;99.90;;;;;;5013608;28;20140;-65
2020/12/03 08:26:41;;;;;;;19.15;8.50;;;4.50;99.90;;;;;;5045502;28;20030;-66
2020/12/03 08:29:21;;;;;;;20.55;8.73;;;4.50;99.90;;;;;;5012446;28;20037;-65
2020/12/03 08:31:47;;;;;;;24.88;10.57;;;4.40;99.90;;;;;;5012013;28;20473;-59
2020/12/03 08:34:13;;;;;;;23.77;9.50;;;4.50;99.90;;;;;;5013397;28;20152;-67
2020/12/03 08:36:39;;;;;;;22.88;9.05;;;4.50;99.90;;;;;;5012214;28;20508;-65
2020/12/03 08:39:04;;;;;;;23.15;10.43;;;4.40;99.90;;;;;;5015735;28;20045;-67
2020/12/03 08:41:30;;;;;;;20.83;9.00;;;4.50;99.90;;;;;;5022085;28;20049;-67
2020/12/03 08:44:02;;;;;;;21.58;9.23;;;4.50;99.90;;;;;;5022046;28;20041;-68
2020/12/03 08:46:34;;;;;;;21.15;9.25;;;4.50;99.90;;;;;;5018443;28;20084;-67
2020/12/03 08:49:05;;;;;;;22.92;10.02;;;4.50;99.90;;;;;;5013346;28;20030;-63
2020/12/03 08:51:31;;;;;;;20.60;8.52;;;4.50;99.90;;;;;;5014967;28;20021;-63
2020/12/03 08:53:57;;;;;;;22.50;9.95;;;4.50;99.90;;;;;;5014026;28;20030;-63
2020/12/03 08:56:32;;;;;;;22.80;9.45;;;4.50;99.90;;;;;;5015143;28;20385;-62
2020/12/03 08:59:01;;;;;;;22.60;10.10;;;4.50;99.90;;;;;;5014722;28;20029;-61
2020/12/03 09:01:52;;;;;;;22.88;10.05;;;4.50;99.90;;;;;;5012954;28;20431;-61
2020/12/03 09:04:25;;;;;;;21.23;9.90;;;4.50;99.90;;;;;;4993734;28;20117;-62
2020/12/03 09:06:52;;;;;;;25.02;10.65;;;4.50;99.90;;;;;;4994460;28;20101;-62
2020/12/03 09:09:23;;;;;;;24.65;10.38;;;4.50;99.90;;;;;;4993622;28;20022;-63
2020/12/03 09:11:51;;;;;;;24.23;9.77;;;4.40;99.90;;;;;;4994337;28;20031;-64
2020/12/03 09:14:18;;;;;;;22.80;10.73;;;4.40;99.90;;;;;;4994297;28;20386;-64
2020/12/03 09:16:46;;;;;;;21.20;10.50;;;4.40;99.90;;;;;;4993087;28;20128;-60
2020/12/03 09:19:22;;;;;;;22.50;10.80;;;4.50;99.90;;;;;;4994448;28;20085;-62
2020/12/03 09:21:49;;;;;;;22.17;10.95;;;4.50;99.90;;;;;;4994043;28;20026;-63
2020/12/03 09:24:20;;;;;;;24.10;11.33;;;4.50;99.90;;;;;;4994186;28;20038;-64
2020/12/03 09:26:47;;;;;;;23.08;10.27;;;4.50;99.90;;;;;;4993907;28;20058;-64
2020/12/03 09:29:14;;;;;;;25.63;9.87;;;4.50;99.90;;;;;;4993083;28;20120;-64
2020/12/03 09:31:39;;;;;;;23.60;11.40;;;4.50;99.90;;;;;;5008462;28;20278;-65
2020/12/03 09:34:08;;;;;;;23.85;10.60;;;4.40;99.90;;;;;;4993996;28;20080;-64
2020/12/03 09:36:35;;;;;;;23.00;10.13;;;4.40;99.90;;;;;;4996980;28;20032;-64
2020/12/03 09:39:02;;;;;;;25.30;11.07;;;4.40;99.90;;;;;;5012064;28;20116;-65
2020/12/03 09:41:28;;;;;;;23.25;10.57;;;4.40;99.90;;;;;;5012969;28;20277;-62
